Time;durP1;ratioP1;P1;durP2;ratioP2;P2;SDS_P1;SDS_P2;PMS_P1;PMS_P2;Temp;Humidity;BMP_temperature;BMP_pressure;BME280_temperature;BME280_humidity;BME280_pressure;Samples;Min_cycle;Max_cycle;Signal;HPM_P1;HPM_P2
2022/03/09 00:01:44;;;;;;;2.43;0.50;;;22.80;68.50;;;;;;5049303;28;20180;-80
2022/03/09 00:04:11;;;;;;;2.40;0.77;;;23.00;67.80;;;;;;5055636;28;20587;-76
2022/03/09 00:06:38;;;;;;;2.47;0.47;;;23.10;67.30;;;;;;5050168;28;20276;-83
2022/03/09 00:09:06;;;;;;;1.80;0.50;;;23.10;67.60;;;;;;5053155;28;20555;-83
2022/03/09 00:11:36;;;;;;;2.20;0.53;;;23.30;67.30;;;;;;5054519;28;20207;-84
2022/03/09 00:14:04;;;;;;;2.27;0.60;;;23.30;66.60;;;;;;5046941;28;20172;-80
2022/03/09 00:16:31;;;;;;;2.93;0.70;;;23.50;65.80;;;;;;5053538;28;20191;-83
2022/03/09 00:18:59;;;;;;;1.27;0.50;;;23.40;64.90;;;;;;5055379;28;20172;-80
2022/03/09 00:21:26;;;;;;;0.50;0.40;;;23.30;66.20;;;;;;5043986;28;20191;-79
2022/03/09 00:23:54;;;;;;;2.73;0.80;;;23.10;66.90;;;;;;5049884;28;20658;-78
2022/03/09 00:26:21;;;;;;;2.33;0.60;;;23.00;67.80;;;;;;5055296;28;20179;-83
2022/03/09 00:28:48;;;;;;;2.83;0.60;;;22.90;68.40;;;;;;5050119;28;20179;-75
2022/03/09 00:31:17;;;;;;;1.43;0.83;;;22.90;68.00;;;;;;5050551;28;20304;-83
2022/03/09 00:33:44;;;;;;;1.00;0.50;;;22.90;67.30;;;;;;5052397;28;20180;-82
2022/03/09 00:36:11;;;;;;;1.30;0.57;;;23.00;67.80;;;;;;5054708;28;20306;-81
2022/03/09 00:38:38;;;;;;;2.40;0.70;;;22.80;66.90;;;;;;5054410;28;20172;-83
2022/03/09 00:41:06;;;;;;;2.40;0.73;;;22.80;67.40;;;;;;5054721;28;20258;-78
2022/03/09 00:43:33;;;;;;;3.50;0.80;;;22.90;67.30;;;;;;5054316;28;20172;-76
2022/03/09 00:46:00;;;;;;;1.93;0.60;;;22.80;67.50;;;;;;5054814;28;20176;-77
2022/03/09 00:48:28;;;;;;;0.80;0.57;;;22.80;68.10;;;;;;5054378;28;20152;-79
2022/03/09 00:50:55;;;;;;;2.57;0.67;;;22.80;67.80;;;;;;5054381;28;20212;-79
2022/03/09 00:53:22;;;;;;;1.40;0.50;;;22.70;68.10;;;;;;5054013;28;20680;-76
2022/03/09 00:55:50;;;;;;;0.63;0.43;;;22.80;68.30;;;;;;5054527;28;20214;-75
2022/03/09 00:58:17;;;;;;;0.33;0.30;;;22.80;67.40;;;;;;5054590;28;20668;-77
2022/03/09 01:00:44;;;;;;;2.07;0.70;;;22.90;67.20;;;;;;5054324;28;20238;-77
2022/03/09 01:03:12;;;;;;;1.47;0.70;;;22.80;66.40;;;;;;5053668;28;20637;-77
2022/03/09 01:05:39;;;;;;;1.97;0.70;;;23.00;65.70;;;;;;5054523;28;20743;-80
2022/03/09 01:08:07;;;;;;;2.10;0.93;;;23.20;66.10;;;;;;5054312;28;20213;-76
2022/03/09 01:10:34;;;;;;;1.97;0.80;;;23.30;65.40;;;;;;5052636;28;20269;-80
2022/03/09 01:13:03;;;;;;;2.50;0.93;;;23.40;65.60;;;;;;5053724;28;20176;-82
2022/03/09 01:15:31;;;;;;;4.17;1.00;;;23.40;64.40;;;;;;5051972;28;20713;-78
2022/03/09 01:17:58;;;;;;;3.43;0.80;;;23.80;64.40;;;;;;5037363;28;20172;-88
2022/03/09 01:20:25;;;;;;;5.13;0.77;;;23.90;62.90;;;;;;5054241;28;20179;-77
2022/03/09 01:22:53;;;;;;;2.90;0.80;;;24.10;62.30;;;;;;5053873;28;20186;-76
2022/03/09 01:25:20;;;;;;;2.07;0.70;;;24.30;62.50;;;;;;5052109;28;20183;-78
2022/03/09 01:27:48;;;;;;;1.20;0.50;;;24.70;61.90;;;;;;5052422;28;20174;-78
2022/03/09 01:30:15;;;;;;;1.33;0.70;;;24.20;61.20;;;;;;5051872;28;20204;-76
2022/03/09 01:32:42;;;;;;;2.33;0.50;;;24.10;60.70;;;;;;5053148;28;20626;-82
2022/03/09 01:35:10;;;;;;;1.47;0.67;;;24.20;61.80;;;;;;5053992;28;20615;-83
2022/03/09 01:37:37;;;;;;;2.00;0.93;;;24.10;62.50;;;;;;5054222;28;20184;-78
2022/03/09 01:40:05;;;;;;;2.23;0.70;;;24.10;61.50;;;;;;5053994;28;20183;-77
2022/03/09 01:42:33;;;;;;;3.07;0.70;;;23.80;62.40;;;;;;5054089;28;20176;-80
2022/03/09 01:45:06;;;;;;;2.47;0.90;;;23.60;63.30;;;;;;5053880;28;20688;-84
2022/03/09 01:47:33;;;;;;;3.17;0.80;;;23.70;64.60;;;;;;5053793;28;20600;-80
2022/03/09 01:50:01;;;;;;;1.60;0.63;;;23.50;63.50;;;;;;5053216;28;20247;-75
2022/03/09 01:52:28;;;;;;;2.47;0.87;;;23.20;64.00;;;;;;5053587;28;20182;-84
2022/03/09 01:54:56;;;;;;;1.90;0.67;;;23.10;64.60;;;;;;5052996;28;20164;-75
2022/03/09 01:57:23;;;;;;;3.50;0.90;;;23.20;64.20;;;;;;5053449;28;20164;-80
2022/03/09 01:59:52;;;;;;;3.43;1.47;;;23.30;63.60;;;;;;5053187;28;20176;-75
2022/03/09 02:02:20;;;;;;;1.87;1.00;;;23.70;64.40;;;;;;5053443;28;20230;-76
2022/03/09 02:04:48;;;;;;;2.37;0.70;;;23.80;63.30;;;;;;5052731;28;20182;-77
2022/03/09 02:07:15;;;;;;;1.23;0.70;;;23.70;63.20;;;;;;5053097;28;20223;-81
2022/03/09 02:09:44;;;;;;;2.80;0.70;;;23.80;62.50;;;;;;5053268;28;20564;-79
2022/03/09 02:12:17;;;;;;;2.53;0.67;;;23.30;63.20;;;;;;5052204;28;20543;-80
2022/03/09 02:14:52;;;;;;;2.43;1.00;;;23.30;63.80;;;;;;5052917;28;20259;-78
2022/03/09 02:17:28;;;;;;;1.40;0.97;;;23.70;63.40;;;;;;5051935;28;20179;-80
2022/03/09 02:19:56;;;;;;;3.20;1.10;;;23.80;62.40;;;;;;5051739;28;20184;-77
2022/03/09 02:22:32;;;;;;;3.43;1.10;;;23.80;62.40;;;;;;5053164;28;20178;-76
2022/03/09 02:25:01;;;;;;;2.47;1.10;;;24.00;61.60;;;;;;5053123;28;20186;-75
2022/03/09 02:27:28;;;;;;;4.70;1.10;;;24.20;61.50;;;;;;5052949;28;20250;-74
2022/03/09 02:29:56;;;;;;;2.30;1.00;;;24.00;62.30;;;;;;5046016;28;20596;-73
2022/03/09 02:32:24;;;;;;;3.63;1.00;;;23.90;62.30;;;;;;5032945;28;20191;-79
2022/03/09 02:34:51;;;;;;;4.83;1.30;;;23.80;62.10;;;;;;5050187;28;20188;-74
2022/03/09 02:37:19;;;;;;;4.63;1.00;;;24.10;62.80;;;;;;5052952;28;20176;-77
2022/03/09 02:39:47;;;;;;;2.53;1.00;;;24.30;61.90;;;;;;5052782;28;20631;-75
2022/03/09 02:42:14;;;;;;;6.03;1.03;;;24.50;61.10;;;;;;5052909;28;20656;-77
2022/03/09 02:44:42;;;;;;;3.00;1.13;;;24.30;60.50;;;;;;5052437;28;20179;-80
2022/03/09 02:47:10;;;;;;;2.23;0.70;;;24.30;60.10;;;;;;5052891;28;20589;-78
2022/03/09 02:49:37;;;;;;;2.97;1.00;;;24.30;59.10;;;;;;5051025;28;20230;-79
2022/03/09 02:52:05;;;;;;;3.60;1.03;;;24.50;59.80;;;;;;5052618;28;20180;-78
2022/03/09 02:54:33;;;;;;;5.07;0.90;;;24.50;59.30;;;;;;5052834;28;20171;-77
2022/03/09 02:57:00;;;;;;;1.50;0.70;;;24.60;60.10;;;;;;5052803;28;20176;-83
2022/03/09 02:59:27;;;;;;;2.47;0.80;;;24.40;60.00;;;;;;5052480;28;20172;-78
2022/03/09 03:01:55;;;;;;;1.83;0.70;;;24.60;58.70;;;;;;5052682;28;20168;-82
2022/03/09 03:04:22;;;;;;;1.97;0.60;;;24.60;59.40;;;;;;5052805;28;20202;-76
2022/03/09 03:06:49;;;;;;;1.67;0.80;;;24.50;60.70;;;;;;5052515;28;20582;-74
2022/03/09 03:09:17;;;;;;;2.40;0.87;;;24.30;59.00;;;;;;5056353;28;20180;-78
2022/03/09 03:11:44;;;;;;;4.30;0.90;;;24.30;59.30;;;;;;5055918;28;20212;-78
2022/03/09 03:14:12;;;;;;;2.20;0.83;;;24.40;59.20;;;;;;5055324;28;20190;-79
2022/03/09 03:16:39;;;;;;;4.57;0.67;;;24.60;57.30;;;;;;5052240;28;20179;-77
2022/03/09 03:19:06;;;;;;;3.03;0.77;;;25.00;57.30;;;;;;5056273;28;20617;-77
2022/03/09 03:21:34;;;;;;;2.53;0.97;;;25.10;56.40;;;;;;5055816;28;20180;-78
2022/03/09 03:24:01;;;;;;;1.97;0.70;;;25.20;57.10;;;;;;5048647;28;20180;-80
2022/03/09 03:26:28;;;;;;;3.53;0.50;;;25.70;55.60;;;;;;5053662;28;20714;-77
2022/03/09 03:28:58;;;;;;;1.20;0.60;;;25.70;54.10;;;;;;5054657;28;20184;-84
2022/03/09 03:31:29;;;;;;;1.53;0.70;;;25.30;55.30;;;;;;5055594;28;20219;-79
2022/03/09 03:33:57;;;;;;;1.90;1.00;;;25.40;55.80;;;;;;5055448;28;20172;-75
2022/03/09 03:36:26;;;;;;;3.70;0.60;;;25.30;57.10;;;;;;5049065;28;20188;-80
2022/03/09 03:38:53;;;;;;;2.07;0.90;;;24.90;57.00;;;;;;5055326;28;20191;-78
2022/03/09 03:41:20;;;;;;;4.70;1.03;;;25.00;57.20;;;;;;5054953;28;20807;-78
2022/03/09 03:43:48;;;;;;;3.03;0.70;;;25.80;54.60;;;;;;5052711;28;20200;-76
2022/03/09 03:46:15;;;;;;;2.47;0.83;;;25.10;56.10;;;;;;5051425;28;20195;-79
2022/03/09 03:48:42;;;;;;;4.67;0.80;;;25.10;55.80;;;;;;5053713;28;20211;-78
2022/03/09 03:51:10;;;;;;;2.70;1.00;;;24.70;57.50;;;;;;5054288;28;20219;-78
2022/03/09 03:53:37;;;;;;;1.80;0.63;;;25.10;56.50;;;;;;5054670;28;20567;-81
2022/03/09 03:56:05;;;;;;;3.07;0.90;;;25.70;53.90;;;;;;5054560;28;20242;-85
2022/03/09 03:58:33;;;;;;;7.67;0.87;;;26.30;52.60;;;;;;5052768;28;20219;-79
2022/03/09 04:01:00;;;;;;;1.97;0.80;;;26.00;52.90;;;;;;5052770;28;20192;-77
2022/03/09 04:03:28;;;;;;;2.17;0.87;;;25.90;53.60;;;;;;5050941;28;21111;-80
2022/03/09 04:05:55;;;;;;;2.83;0.77;;;25.50;53.80;;;;;;5053497;28;20228;-80
2022/03/09 04:08:25;;;;;;;3.43;0.83;;;25.20;54.80;;;;;;5035619;28;20639;-76
2022/03/09 04:10:52;;;;;;;4.90;0.80;;;25.40;54.90;;;;;;5034481;28;20220;-74
2022/03/09 04:13:20;;;;;;;2.63;0.80;;;25.20;55.20;;;;;;5040446;28;20190;-78
2022/03/09 04:15:47;;;;;;;2.13;0.67;;;25.20;55.10;;;;;;5055486;28;20708;-80
2022/03/09 04:18:14;;;;;;;1.97;0.80;;;25.70;54.00;;;;;;5053957;28;20176;-79
2022/03/09 04:20:41;;;;;;;1.70;0.77;;;26.00;52.10;;;;;;5054589;28;20168;-75
2022/03/09 04:23:10;;;;;;;3.20;0.53;;;25.70;53.10;;;;;;5045368;28;20215;-81
2022/03/09 04:25:38;;;;;;;2.20;1.17;;;25.60;54.00;;;;;;5041696;28;20180;-78
2022/03/09 04:28:06;;;;;;;2.03;0.70;;;25.30;53.90;;;;;;5054054;28;20249;-78
2022/03/09 04:30:33;;;;;;;2.70;1.00;;;24.90;55.90;;;;;;5053858;28;20203;-80
2022/03/09 04:33:01;;;;;;;1.40;0.53;;;24.80;56.70;;;;;;5053695;28;20682;-84
2022/03/09 04:35:28;;;;;;;4.10;0.97;;;25.10;55.20;;;;;;5049780;28;20180;-81
2022/03/09 04:37:56;;;;;;;1.33;0.60;;;24.90;55.40;;;;;;5041990;28;20200;-79
2022/03/09 04:40:23;;;;;;;2.30;0.70;;;24.80;56.10;;;;;;5048157;28;20164;-77
2022/03/09 04:42:50;;;;;;;4.07;0.80;;;24.50;56.80;;;;;;5054584;28;20208;-77
2022/03/09 04:45:18;;;;;;;2.77;0.83;;;24.50;57.40;;;;;;5040601;28;20245;-77
2022/03/09 04:47:45;;;;;;;0.77;0.50;;;24.40;56.70;;;;;;5036096;28;20181;-77
2022/03/09 04:50:12;;;;;;;2.27;0.87;;;24.30;56.40;;;;;;5047799;28;20203;-75
2022/03/09 04:52:40;;;;;;;1.43;0.90;;;24.50;57.40;;;;;;5054554;28;20270;-78
2022/03/09 04:55:08;;;;;;;2.70;0.73;;;24.40;56.50;;;;;;5046195;28;20632;-81
2022/03/09 04:57:39;;;;;;;3.23;0.97;;;24.30;55.90;;;;;;5054593;28;20258;-74
2022/03/09 05:00:08;;;;;;;2.10;0.80;;;24.50;55.20;;;;;;5044709;28;20276;-81
2022/03/09 05:02:36;;;;;;;4.30;1.00;;;24.80;54.30;;;;;;5043428;28;20214;-81
2022/03/09 05:05:04;;;;;;;3.53;0.80;;;24.50;55.00;;;;;;5052787;28;20216;-78
2022/03/09 05:07:32;;;;;;;2.53;0.90;;;24.30;55.70;;;;;;5041888;28;20311;-80
2022/03/09 05:10:00;;;;;;;2.93;0.90;;;24.20;55.90;;;;;;5034717;28;20204;-80
2022/03/09 05:12:27;;;;;;;4.17;0.90;;;24.20;56.60;;;;;;5042318;28;20192;-78
2022/03/09 05:14:55;;;;;;;4.07;1.03;;;24.40;56.10;;;;;;5052471;28;20585;-75
2022/03/09 05:17:23;;;;;;;2.70;1.27;;;24.70;55.80;;;;;;5052979;28;20196;-80
2022/03/09 05:19:50;;;;;;;3.63;0.80;;;24.80;54.70;;;;;;5054091;28;20184;-76
2022/03/09 05:22:18;;;;;;;4.37;0.90;;;25.00;53.90;;;;;;5052959;28;20191;-80
2022/03/09 05:24:45;;;;;;;2.07;0.83;;;25.50;53.20;;;;;;5039403;28;20237;-77
2022/03/09 05:27:14;;;;;;;2.83;0.90;;;25.60;52.40;;;;;;5048331;28;20271;-82
2022/03/09 05:29:42;;;;;;;4.87;0.90;;;25.60;51.40;;;;;;5048302;28;20654;-76
2022/03/09 05:32:09;;;;;;;2.97;1.20;;;26.20;50.70;;;;;;5052619;28;20706;-78
2022/03/09 05:34:37;;;;;;;6.07;1.20;;;26.20;50.40;;;;;;5047218;28;20180;-83
2022/03/09 05:37:04;;;;;;;3.33;1.03;;;25.80;51.50;;;;;;5051798;28;20184;-79
2022/03/09 05:39:31;;;;;;;3.43;1.13;;;26.00;51.30;;;;;;5051593;28;20183;-75
2022/03/09 05:41:59;;;;;;;7.10;1.43;;;26.10;50.10;;;;;;5053233;28;20180;-81
2022/03/09 05:44:26;;;;;;;5.17;1.30;;;26.20;50.40;;;;;;5053352;28;20634;-78
2022/03/09 05:46:54;;;;;;;5.10;1.40;;;26.70;48.80;;;;;;5053159;28;20182;-77
2022/03/09 05:49:21;;;;;;;2.63;1.20;;;26.90;48.40;;;;;;5051295;28;20339;-76
2022/03/09 05:51:49;;;;;;;2.77;1.23;;;27.10;48.30;;;;;;5051015;28;20222;-74
2022/03/09 05:54:16;;;;;;;2.80;1.20;;;28.40;45.70;;;;;;5051507;28;20310;-81
2022/03/09 05:56:44;;;;;;;3.40;1.20;;;28.80;44.30;;;;;;5052503;28;20823;-75
2022/03/09 05:59:11;;;;;;;4.77;1.30;;;28.30;45.50;;;;;;5052320;28;20194;-79
2022/03/09 06:01:39;;;;;;;3.73;1.20;;;27.70;45.40;;;;;;5053083;28;20206;-79
2022/03/09 06:04:07;;;;;;;4.40;1.27;;;27.30;47.00;;;;;;5052797;28;20199;-77
2022/03/09 06:06:34;;;;;;;3.47;1.47;;;26.40;49.20;;;;;;5049952;28;20216;-78
2022/03/09 06:09:01;;;;;;;5.03;1.83;;;26.00;51.20;;;;;;5052667;28;20194;-75
2022/03/09 06:11:29;;;;;;;6.70;1.60;;;26.40;50.80;;;;;;5045538;28;20219;-75
2022/03/09 06:13:56;;;;;;;5.47;1.93;;;26.20;51.60;;;;;;5049778;28;20203;-75
2022/03/09 06:16:23;;;;;;;10.47;2.00;;;27.10;49.80;;;;;;5044699;28;20193;-81
2022/03/09 06:18:51;;;;;;;6.33;2.27;;;27.70;47.80;;;;;;5043749;28;20646;-79
2022/03/09 06:21:18;;;;;;;7.40;1.80;;;27.50;47.50;;;;;;5051683;28;20215;-84
2022/03/09 06:23:45;;;;;;;9.80;2.60;;;27.00;49.20;;;;;;5051621;28;20195;-85
2022/03/09 06:26:13;;;;;;;11.07;2.67;;;26.90;50.50;;;;;;5048739;28;20184;-76
2022/03/09 06:28:40;;;;;;;12.43;2.40;;;27.50;50.10;;;;;;5046710;28;20184;-78
2022/03/09 06:31:07;;;;;;;6.27;2.40;;;27.70;49.40;;;;;;5050175;28;20215;-75
2022/03/09 06:33:35;;;;;;;8.50;1.90;;;27.90;48.60;;;;;;5050019;28;20234;-76
2022/03/09 06:36:06;;;;;;;11.77;3.10;;;26.90;50.70;;;;;;5051979;28;20658;-76
2022/03/09 06:38:34;;;;;;;12.67;3.03;;;26.30;52.30;;;;;;5045830;28;20276;-79
2022/03/09 06:41:01;;;;;;;12.57;2.50;;;25.50;54.60;;;;;;5032810;28;20184;-77
2022/03/09 06:43:28;;;;;;;8.70;2.30;;;25.30;55.60;;;;;;5041151;28;20661;-76
2022/03/09 06:45:56;;;;;;;9.57;2.57;;;25.00;55.90;;;;;;5051776;28;20221;-83
2022/03/09 06:48:23;;;;;;;12.33;2.97;;;24.40;57.40;;;;;;5047982;28;20184;-76
2022/03/09 06:50:50;;;;;;;12.70;2.90;;;25.30;54.80;;;;;;5050539;28;20222;-75
2022/03/09 06:53:17;;;;;;;10.30;2.47;;;26.30;52.20;;;;;;5051292;28;20248;-78
2022/03/09 06:55:45;;;;;;;19.23;3.30;;;26.80;50.10;;;;;;5050934;28;20184;-79
2022/03/09 06:58:12;;;;;;;7.93;2.60;;;27.00;50.10;;;;;;5059363;28;20240;-78
2022/03/09 07:00:40;;;;;;;6.13;1.93;;;27.20;48.70;;;;;;5052257;28;20657;-86
2022/03/09 07:03:07;;;;;;;9.60;2.30;;;27.30;48.60;;;;;;5051716;28;20249;-77
2022/03/09 07:05:35;;;;;;;10.10;2.53;;;27.00;49.50;;;;;;5051597;28;20224;-81
2022/03/09 07:08:02;;;;;;;10.93;2.47;;;26.40;50.90;;;;;;5055908;28;20195;-76
2022/03/09 07:10:30;;;;;;;10.20;2.50;;;26.40;51.60;;;;;;5044076;28;20222;-81
2022/03/09 07:12:57;;;;;;;11.53;2.93;;;26.00;51.70;;;;;;5051994;28;20661;-74
2022/03/09 07:15:24;;;;;;;9.97;2.83;;;26.00;51.70;;;;;;5052454;28;20180;-82
2022/03/09 07:17:52;;;;;;;12.33;3.03;;;26.00;52.00;;;;;;5048502;28;20208;-76
2022/03/09 07:20:20;;;;;;;13.50;3.43;;;26.20;51.90;;;;;;5051259;28;20176;-77
2022/03/09 07:22:48;;;;;;;8.50;2.53;;;26.20;52.00;;;;;;5052556;28;20199;-74
2022/03/09 07:25:16;;;;;;;12.33;2.83;;;26.30;52.40;;;;;;5052450;28;20694;-81
2022/03/09 07:27:43;;;;;;;12.80;2.57;;;26.00;52.10;;;;;;5045729;28;20206;-77
2022/03/09 07:30:11;;;;;;;11.17;2.37;;;25.70;52.70;;;;;;5045888;28;20601;-77
2022/03/09 07:32:39;;;;;;;12.73;2.27;;;25.70;52.70;;;;;;5047944;28;20193;-75
2022/03/09 07:35:07;;;;;;;14.30;2.90;;;25.60;51.90;;;;;;5044238;28;20209;-79
2022/03/09 07:37:35;;;;;;;12.90;3.27;;;25.20;52.90;;;;;;5036154;28;20263;-83
2022/03/09 07:40:04;;;;;;;8.80;2.63;;;24.90;53.70;;;;;;5051990;28;20669;-85
2022/03/09 07:42:31;;;;;;;9.60;2.13;;;24.60;54.00;;;;;;5048464;28;20753;-76
2022/03/09 07:45:00;;;;;;;9.57;2.53;;;24.50;54.70;;;;;;5045696;28;20183;-80
2022/03/09 07:47:28;;;;;;;12.53;2.67;;;23.90;55.90;;;;;;5046288;28;20191;-77
2022/03/09 07:49:55;;;;;;;9.57;2.67;;;23.30;57.90;;;;;;5051339;28;20182;-77
2022/03/09 07:52:22;;;;;;;13.93;2.80;;;23.10;58.80;;;;;;5051962;28;20212;-81
2022/03/09 07:54:50;;;;;;;7.27;2.63;;;22.70;60.00;;;;;;5054607;28;20258;-74
2022/03/09 07:57:17;;;;;;;10.27;2.40;;;22.30;60.20;;;;;;5053490;28;20180;-81
2022/03/09 07:59:45;;;;;;;12.73;2.80;;;22.20;60.30;;;;;;5054815;28;20238;-83
2022/03/09 08:02:12;;;;;;;15.17;2.77;;;22.00;61.60;;;;;;5052878;28;20271;-78
2022/03/09 08:04:40;;;;;;;14.03;3.20;;;22.00;62.20;;;;;;5053520;28;20191;-80
2022/03/09 08:07:07;;;;;;;11.50;2.63;;;21.90;63.00;;;;;;5045054;28;20315;-83
2022/03/09 08:09:34;;;;;;;13.03;3.40;;;21.80;63.20;;;;;;5054973;28;20287;-79
2022/03/09 08:12:02;;;;;;;14.17;2.83;;;21.60;63.60;;;;;;5048733;28;20216;-80
2022/03/09 08:14:30;;;;;;;10.53;2.90;;;21.50;64.00;;;;;;5035671;28;20177;-78
2022/03/09 08:16:57;;;;;;;11.47;2.50;;;21.50;64.40;;;;;;5036304;28;20205;-79
2022/03/09 08:19:28;;;;;;;14.20;3.20;;;21.30;64.70;;;;;;5052625;28;20306;-77
2022/03/09 08:21:55;;;;;;;15.27;3.03;;;21.30;65.00;;;;;;5055403;28;20182;-82
2022/03/09 08:24:23;;;;;;;11.77;2.93;;;21.20;64.90;;;;;;5053671;28;20210;-86
2022/03/09 08:26:50;;;;;;;16.60;3.20;;;21.10;65.30;;;;;;5054772;28;20183;-77
2022/03/09 08:29:17;;;;;;;13.63;3.30;;;21.10;66.20;;;;;;5055218;28;20198;-79
2022/03/09 08:31:45;;;;;;;10.53;3.10;;;21.00;66.60;;;;;;5055147;28;20302;-77
2022/03/09 08:34:12;;;;;;;20.30;3.10;;;21.00;66.80;;;;;;5053420;28;20184;-78
2022/03/09 08:36:40;;;;;;;16.47;3.37;;;20.90;67.20;;;;;;5050360;28;20539;-79
2022/03/09 08:39:07;;;;;;;16.60;3.30;;;20.90;67.20;;;;;;5054289;28;20179;-79
2022/03/09 08:41:35;;;;;;;10.70;3.93;;;20.80;67.60;;;;;;5045936;28;20176;-77
2022/03/09 08:44:04;;;;;;;8.90;3.03;;;20.80;67.70;;;;;;5053388;28;20700;-75
2022/03/09 08:46:31;;;;;;;14.10;3.23;;;20.80;67.90;;;;;;5054947;28;20578;-77
2022/03/09 08:48:58;;;;;;;15.03;3.13;;;20.80;68.30;;;;;;5053647;28;20654;-78
2022/03/09 08:51:26;;;;;;;14.00;3.17;;;20.80;68.60;;;;;;5053034;28;20231;-80
2022/03/09 08:53:53;;;;;;;13.70;3.30;;;20.70;68.50;;;;;;5054398;28;20271;-77
2022/03/09 08:56:21;;;;;;;19.77;3.37;;;20.60;68.70;;;;;;5039816;28;20275;-79
2022/03/09 08:58:48;;;;;;;11.47;2.97;;;20.60;68.70;;;;;;5043646;28;20172;-79
2022/03/09 09:01:16;;;;;;;13.23;2.87;;;20.60;68.60;;;;;;5054084;28;20176;-81
2022/03/09 09:03:43;;;;;;;16.53;3.00;;;20.60;68.60;;;;;;5053103;28;20181;-79
2022/03/09 09:06:10;;;;;;;8.57;2.40;;;20.50;68.10;;;;;;5052755;28;20694;-80
2022/03/09 09:08:38;;;;;;;11.70;2.87;;;20.50;68.10;;;;;;5054540;28;20164;-79
2022/03/09 09:11:05;;;;;;;13.67;3.00;;;20.40;68.10;;;;;;5054122;28;20211;-83
2022/03/09 09:13:32;;;;;;;14.13;2.90;;;20.40;68.00;;;;;;5054653;28;20662;-78
2022/03/09 09:16:00;;;;;;;9.87;3.00;;;20.40;67.60;;;;;;5054578;28;20266;-77
2022/03/09 09:18:27;;;;;;;12.17;3.10;;;20.40;67.50;;;;;;5053969;28;20211;-81
2022/03/09 09:20:56;;;;;;;10.73;3.13;;;20.40;67.50;;;;;;5052096;28;20192;-79
2022/03/09 09:23:24;;;;;;;11.93;3.20;;;20.30;67.60;;;;;;5052728;28;20180;-77
2022/03/09 09:25:51;;;;;;;8.27;2.43;;;20.30;67.60;;;;;;5053951;28;20221;-80
2022/03/09 09:28:19;;;;;;;9.63;2.33;;;20.30;66.70;;;;;;5054297;28;20168;-79
2022/03/09 09:30:49;;;;;;;9.77;2.40;;;20.20;66.60;;;;;;5052425;28;20329;-83
2022/03/09 09:33:17;;;;;;;11.03;2.23;;;20.20;67.10;;;;;;5053374;28;20180;-80
2022/03/09 09:35:48;;;;;;;8.40;2.00;;;20.20;67.00;;;;;;5048698;28;20184;-75
2022/03/09 09:38:15;;;;;;;5.20;1.90;;;20.10;66.70;;;;;;5052475;28;20656;-82
2022/03/09 09:40:45;;;;;;;8.10;2.50;;;20.10;67.00;;;;;;5053359;28;20180;-78
2022/03/09 09:43:14;;;;;;;10.53;2.23;;;20.10;67.20;;;;;;5052915;28;20313;-74
2022/03/09 09:45:43;;;;;;;15.20;2.93;;;20.00;67.60;;;;;;5054093;28;20547;-73
2022/03/09 09:48:11;;;;;;;11.17;2.57;;;20.00;68.10;;;;;;5053753;28;20207;-81
2022/03/09 09:50:41;;;;;;;14.60;3.07;;;20.00;68.80;;;;;;5053022;28;20310;-75
2022/03/09 09:53:11;;;;;;;14.90;2.67;;;19.90;69.40;;;;;;5054066;28;20176;-81
2022/03/09 09:55:39;;;;;;;11.73;3.57;;;19.90;69.70;;;;;;5053204;28;20180;-86
2022/03/09 09:58:08;;;;;;;12.83;2.77;;;19.80;70.00;;;;;;5054419;28;20533;-78
2022/03/09 10:00:38;;;;;;;16.63;3.23;;;19.80;70.40;;;;;;5045071;28;20188;-82
2022/03/09 10:03:06;;;;;;;14.93;3.43;;;19.80;70.70;;;;;;5049644;28;20267;-81
2022/03/09 10:05:33;;;;;;;20.37;3.13;;;19.70;71.00;;;;;;5053212;28;20426;-83
2022/03/09 10:08:07;;;;;;;17.63;3.93;;;19.80;70.90;;;;;;5053013;28;20190;-83
2022/03/09 10:10:54;;;;;;;13.47;3.43;;;19.70;71.60;;;;;;5052274;28;20217;-80
2022/03/09 10:13:27;;;;;;;16.50;2.83;;;19.60;72.00;;;;;;5051373;28;20184;-80
2022/03/09 10:16:21;;;;;;;22.50;3.80;;;19.70;72.60;;;;;;5049920;28;20196;-83
2022/03/09 10:18:54;;;;;;;23.37;3.77;;;19.70;72.70;;;;;;5050693;28;20176;-81
2022/03/09 10:21:28;;;;;;;19.17;3.87;;;19.60;73.20;;;;;;5052780;28;20180;-79
2022/03/09 10:24:04;;;;;;;15.60;3.57;;;19.70;73.40;;;;;;5053690;28;20180;-84
2022/03/09 10:26:40;;;;;;;22.60;3.70;;;19.60;73.60;;;;;;5053020;28;20186;-79
2022/03/09 10:29:13;;;;;;;21.60;4.43;;;19.70;73.30;;;;;;5053384;28;20187;-82
2022/03/09 10:31:49;;;;;;;15.20;3.33;;;19.70;73.20;;;;;;5040606;28;20208;-79
2022/03/09 10:34:19;;;;;;;19.03;4.20;;;19.60;73.80;;;;;;5051558;28;20175;-81
2022/03/09 10:37:03;;;;;;;22.90;4.03;;;19.60;73.70;;;;;;5052600;28;20179;-85
2022/03/09 10:39:39;;;;;;;21.90;5.10;;;19.50;73.80;;;;;;5051551;28;20665;-85
2022/03/09 10:42:23;;;;;;;21.00;3.50;;;19.50;74.00;;;;;;5050393;28;20172;-80
2022/03/09 10:44:52;;;;;;;16.40;3.60;;;19.60;73.70;;;;;;5051183;28;20208;-78
2022/03/09 10:47:34;;;;;;;17.37;3.47;;;19.60;73.10;;;;;;5048879;28;20650;-75
2022/03/09 10:50:09;;;;;;;19.70;3.73;;;19.60;73.20;;;;;;5037864;28;20215;-78
2022/03/09 10:52:43;;;;;;;15.40;3.47;;;19.60;73.40;;;;;;5046970;28;20630;-77
2022/03/09 10:55:32;;;;;;;20.67;3.63;;;19.60;73.70;;;;;;5048646;28;20634;-75
2022/03/09 10:58:17;;;;;;;19.57;4.53;;;19.50;73.90;;;;;;5050653;28;20200;-83
2022/03/09 11:00:53;;;;;;;22.37;3.97;;;19.50;74.10;;;;;;5051651;28;20183;-80
2022/03/09 11:03:26;;;;;;;18.67;4.63;;;19.50;74.30;;;;;;5041201;28;20184;-80
2022/03/09 11:05:59;;;;;;;21.73;3.77;;;19.50;74.40;;;;;;5047990;28;20226;-78
2022/03/09 11:08:34;;;;;;;14.40;2.93;;;19.50;74.10;;;;;;5037313;28;20187;-79
2022/03/09 11:11:02;;;;;;;16.97;3.70;;;19.50;73.60;;;;;;5041646;28;20208;-80
2022/03/09 11:13:32;;;;;;;21.13;3.53;;;19.50;73.30;;;;;;5045213;28;20223;-76
2022/03/09 11:16:00;;;;;;;21.37;4.20;;;19.60;72.90;;;;;;5052434;28;20259;-78
2022/03/09 11:18:29;;;;;;;15.37;2.97;;;19.50;72.80;;;;;;5036565;28;20191;-80
2022/03/09 11:20:59;;;;;;;23.23;4.20;;;19.60;72.90;;;;;;5051239;28;20660;-78
2022/03/09 11:23:29;;;;;;;16.30;3.70;;;19.60;73.30;;;;;;5048778;28;20567;-80
2022/03/09 11:26:14;;;;;;;15.50;3.43;;;19.50;72.90;;;;;;5035919;28;20184;-78
2022/03/09 11:28:44;;;;;;;15.27;3.20;;;19.50;73.10;;;;;;5047236;28;20198;-84
2022/03/09 11:31:17;;;;;;;12.83;3.23;;;19.50;72.30;;;;;;5048744;28;20208;-82
2022/03/09 11:33:49;;;;;;;16.27;3.27;;;19.50;71.70;;;;;;5042578;28;20184;-79
2022/03/09 11:36:23;;;;;;;13.50;3.60;;;19.50;71.30;;;;;;5054560;28;20634;-81
2022/03/09 11:38:55;;;;;;;21.40;3.63;;;19.50;71.00;;;;;;5056246;28;20637;-75
2022/03/09 11:41:26;;;;;;;16.73;3.00;;;19.50;71.10;;;;;;5059518;28;20179;-79
2022/03/09 11:43:54;;;;;;;15.90;3.30;;;19.50;70.60;;;;;;5059700;28;20191;-82
2022/03/09 11:46:22;;;;;;;10.43;2.50;;;19.40;70.30;;;;;;5050433;28;20188;-78
2022/03/09 11:48:50;;;;;;;15.33;2.90;;;19.40;69.60;;;;;;5060986;28;20550;-77
2022/03/09 11:51:19;;;;;;;13.53;2.53;;;19.40;69.60;;;;;;5055934;28;20220;-78
2022/03/09 11:54:00;;;;;;;13.03;2.70;;;19.30;69.60;;;;;;5051092;28;20183;-80
2022/03/09 11:56:37;;;;;;;11.57;3.43;;;19.30;69.50;;;;;;5048303;28;20168;-88
2022/03/09 11:59:29;;;;;;;10.87;3.17;;;19.30;69.50;;;;;;5054964;28;20179;-80
2022/03/09 12:02:03;;;;;;;15.53;2.40;;;19.30;69.40;;;;;;5054521;28;20651;-80
2022/03/09 12:04:45;;;;;;;14.87;3.13;;;19.30;69.70;;;;;;5051048;28;20178;-78
2022/03/09 12:07:13;;;;;;;14.60;2.80;;;19.30;70.10;;;;;;5056159;28;20694;-79
2022/03/09 12:10:03;;;;;;;13.43;3.33;;;19.20;70.20;;;;;;5055418;28;20249;-81
2022/03/09 12:12:36;;;;;;;15.90;3.13;;;19.20;70.60;;;;;;5055503;28;20293;-82
2022/03/09 12:15:05;;;;;;;16.43;3.70;;;19.20;70.50;;;;;;5055276;28;20200;-84
2022/03/09 12:17:47;;;;;;;17.63;3.30;;;19.20;70.70;;;;;;5054594;28;20186;-78
2022/03/09 12:20:23;;;;;;;13.93;3.57;;;19.20;70.60;;;;;;5055130;28;20175;-83
2022/03/09 12:22:57;;;;;;;11.80;2.60;;;19.20;70.40;;;;;;5055646;28;20175;-79
2022/03/09 12:25:49;;;;;;;19.17;3.23;;;19.20;69.90;;;;;;5055517;28;20176;-75
2022/03/09 12:28:28;;;;;;;11.97;2.63;;;19.20;70.10;;;;;;5055079;28;20665;-79
2022/03/09 12:31:10;;;;;;;8.67;2.57;;;19.20;69.90;;;;;;5055099;28;20658;-76
2022/03/09 12:33:40;;;;;;;14.83;3.23;;;19.20;69.80;;;;;;5055702;28;20180;-81
2022/03/09 12:36:27;;;;;;;13.40;3.07;;;19.20;70.50;;;;;;5055389;28;20703;-82
2022/03/09 12:38:56;;;;;;;11.17;2.87;;;19.10;70.50;;;;;;5053346;28;20542;-83
2022/03/09 12:41:31;;;;;;;12.30;3.10;;;19.00;70.30;;;;;;5039293;28;20693;-81
2022/03/09 12:44:09;;;;;;;14.10;3.30;;;19.00;70.50;;;;;;5050301;28;20639;-76
2022/03/09 12:46:41;;;;;;;20.07;4.00;;;19.00;71.00;;;;;;5054327;28;20627;-81
2022/03/09 12:49:11;;;;;;;18.53;3.37;;;19.00;71.10;;;;;;5043395;28;20550;-81
2022/03/09 12:51:50;;;;;;;15.60;3.67;;;18.90;71.10;;;;;;5034884;28;20235;-80
2022/03/09 12:54:35;;;;;;;19.83;3.80;;;18.90;71.30;;;;;;5056611;28;20188;-78